createdAt,value
2018-07-26T00:00:46.934Z,6.80
2018-07-26T00:03:15.340Z,6.67
2018-07-26T00:05:43.741Z,6.33
2018-07-26T00:08:12.144Z,7.10
2018-07-26T00:10:40.957Z,6.70
2018-07-26T00:13:09.621Z,6.60
2018-07-26T00:15:38.004Z,6.10
2018-07-26T00:18:06.437Z,7.17
2018-07-26T00:20:35.185Z,6.07
2018-07-26T00:23:03.638Z,6.57
2018-07-26T00:25:32.018Z,6.47
2018-07-26T00:28:00.390Z,6.53
2018-07-26T00:30:29.208Z,6.60
2018-07-26T00:32:57.995Z,7.10
2018-07-26T00:35:26.360Z,7.27
2018-07-26T00:37:54.730Z,6.93
2018-07-26T00:40:23.100Z,7.83
2018-07-26T00:47:47.889Z,7.60
2018-07-26T00:50:16.269Z,8.40
2018-07-26T00:52:44.610Z,7.17
2018-07-26T00:55:13.032Z,7.40
2018-07-26T00:57:41.415Z,8.00
2018-07-26T01:00:09.849Z,7.63
2018-07-26T01:12:28.870Z,8.73
2018-07-26T01:14:57.259Z,8.90
2018-07-26T01:22:20.869Z,9.00
2018-07-26T01:32:13.160Z,8.40
2018-07-26T01:39:37.380Z,8.13
2018-07-26T01:42:06.175Z,7.60
2018-07-26T01:44:34.588Z,7.80
2018-07-26T01:47:03.395Z,7.50
2018-07-26T01:49:31.798Z,7.70
2018-07-26T01:52:00.165Z,8.20
2018-07-26T01:59:24.037Z,7.13
2018-07-26T02:01:52.419Z,7.03
2018-07-26T02:04:20.850Z,6.77
2018-07-26T02:06:49.629Z,7.07
2018-07-26T02:09:17.973Z,6.60
2018-07-26T02:11:46.431Z,6.73
2018-07-26T02:16:47.869Z,6.77
2018-07-26T02:19:16.648Z,6.70
2018-07-26T02:21:45.032Z,6.57
2018-07-26T02:24:13.418Z,5.97
2018-07-26T02:26:41.774Z,6.07
2018-07-26T02:29:10.604Z,5.80
2018-07-26T02:31:39.372Z,5.93
2018-07-26T02:34:07.753Z,6.90
2018-07-26T02:36:36.206Z,6.80
2018-07-26T02:39:06.333Z,5.70
2018-07-26T02:41:35.099Z,6.07
2018-07-26T02:44:03.985Z,6.00
2018-07-26T02:46:32.771Z,6.07
2018-07-26T02:49:01.529Z,6.83
2018-07-26T02:51:30.315Z,6.47
2018-07-26T02:53:59.090Z,6.13
2018-07-26T02:56:27.863Z,5.23
2018-07-26T02:58:56.662Z,6.03
2018-07-26T03:01:25.516Z,5.80
2018-07-26T03:03:53.874Z,5.40
2018-07-26T03:06:22.302Z,6.23
2018-07-26T03:08:51.097Z,5.90
2018-07-26T03:11:19.489Z,6.00
2018-07-26T03:13:48.335Z,5.50
2018-07-26T03:16:17.144Z,5.50
2018-07-26T03:18:45.875Z,5.07
2018-07-26T03:21:14.724Z,5.97
2018-07-26T03:23:43.511Z,6.07
2018-07-26T03:26:12.290Z,5.60
2018-07-26T03:28:41.078Z,5.97
2018-07-26T03:31:09.825Z,5.97
2018-07-26T03:41:01.311Z,6.40
2018-07-26T03:48:25.204Z,5.90
2018-07-26T04:03:12.584Z,7.10
2018-07-26T04:05:41.370Z,6.00
2018-07-26T04:08:09.773Z,5.77
2018-07-26T04:10:39.384Z,5.67
2018-07-26T04:13:07.773Z,5.20
2018-07-26T04:15:36.148Z,6.10
2018-07-26T04:18:06.474Z,5.80
2018-07-26T04:20:35.078Z,5.27
2018-07-26T04:23:03.479Z,6.47
2018-07-26T04:25:32.349Z,5.93
2018-07-26T04:28:01.422Z,5.57
2018-07-26T04:30:30.219Z,5.90
2018-07-26T04:32:58.996Z,5.30
2018-07-26T04:45:18.381Z,6.87
2018-07-26T04:47:46.793Z,5.90
2018-07-26T04:50:15.240Z,5.77
2018-07-26T04:52:43.661Z,5.73
2018-07-26T05:51:50.689Z,3.87
2018-07-26T05:54:19.483Z,4.10
2018-07-26T05:56:47.884Z,3.90
2018-07-26T05:59:16.282Z,4.40
2018-07-26T06:01:44.697Z,3.83
2018-07-26T06:04:13.152Z,4.43
2018-07-26T06:06:41.953Z,4.00
2018-07-26T06:09:11.892Z,4.30
2018-07-26T06:11:41.257Z,3.97
2018-07-26T06:14:09.988Z,3.60
2018-07-26T06:16:38.390Z,4.20
2018-07-26T06:19:06.777Z,3.80
2018-07-26T06:21:35.578Z,3.63
2018-07-26T06:24:04.453Z,3.67
2018-07-26T06:26:33.232Z,4.30
2018-07-26T06:29:01.640Z,3.67
2018-07-26T06:31:30.019Z,3.90
2018-07-26T06:33:58.402Z,3.40
2018-07-26T06:36:26.768Z,4.40
2018-07-26T06:38:55.560Z,3.70
2018-07-26T06:41:24.318Z,3.90
2018-07-26T06:43:52.748Z,3.23
2018-07-26T06:46:21.148Z,3.57
2018-07-26T06:48:49.906Z,3.30
2018-07-26T06:51:18.341Z,3.57
2018-07-26T06:53:47.171Z,3.70
2018-07-26T06:56:15.539Z,3.70
2018-07-26T06:58:43.992Z,3.30
2018-07-26T07:01:12.757Z,3.20
2018-07-26T07:03:41.139Z,3.13
2018-07-26T07:06:09.924Z,3.37
2018-07-26T07:08:38.357Z,3.30
2018-07-26T07:11:06.741Z,3.40
2018-07-26T07:13:35.526Z,3.50
2018-07-26T07:16:03.924Z,3.23
2018-07-26T07:18:32.312Z,3.30
2018-07-26T07:21:00.754Z,3.50
2018-07-26T07:23:29.133Z,2.90
2018-07-26T07:25:57.902Z,3.60
2018-07-26T07:28:26.266Z,3.10
2018-07-26T07:30:55.130Z,3.40
2018-07-26T07:33:23.908Z,3.60
2018-07-26T07:35:52.802Z,3.20
2018-07-26T07:38:21.224Z,3.13
2018-07-26T07:40:50.072Z,3.00
2018-07-26T07:43:18.858Z,3.57
2018-07-26T07:45:47.261Z,2.73
2018-07-26T07:48:16.022Z,3.40
2018-07-26T07:50:44.454Z,2.70
2018-07-26T07:53:13.234Z,3.00
2018-07-26T07:55:43.157Z,3.00
2018-07-26T07:58:11.533Z,2.80
2018-07-26T08:00:39.922Z,3.57
2018-07-26T08:03:08.948Z,2.80
2018-07-26T08:05:37.471Z,3.03
2018-07-26T08:08:06.403Z,3.20
2018-07-26T08:10:35.175Z,2.90
2018-07-26T08:13:04.050Z,3.20
2018-07-26T08:15:32.428Z,3.00
2018-07-26T08:18:00.777Z,3.00
2018-07-26T08:20:29.160Z,3.30
2018-07-26T08:22:57.927Z,2.73
2018-07-26T08:25:26.313Z,2.90
2018-07-26T08:27:55.144Z,2.80
2018-07-26T08:30:23.915Z,2.83
2018-07-26T08:32:52.349Z,3.13
2018-07-26T08:35:20.730Z,2.70
2018-07-26T08:37:49.518Z,2.87
2018-07-26T08:40:18.291Z,3.23
2018-07-26T08:42:47.168Z,2.70
2018-07-26T08:45:15.648Z,3.13
2018-07-26T08:47:44.554Z,2.70
2018-07-26T08:50:12.957Z,2.90
2018-07-26T08:52:41.308Z,2.80
2018-07-26T08:55:10.017Z,2.63
2018-07-26T08:57:38.442Z,3.00
2018-07-26T09:00:07.839Z,3.60
2018-07-26T09:02:36.236Z,2.80
2018-07-26T09:05:04.821Z,2.77
2018-07-26T09:07:33.230Z,2.73
2018-07-26T09:10:03.623Z,2.90
2018-07-26T09:12:32.076Z,2.77
2018-07-26T09:15:00.449Z,2.93
2018-07-26T09:17:30.448Z,3.00
2018-07-26T09:19:58.867Z,2.97
2018-07-26T09:22:27.416Z,2.77
2018-07-26T09:24:55.852Z,2.63
2018-07-26T09:27:24.645Z,3.00
2018-07-26T09:29:53.504Z,3.37
2018-07-26T09:32:22.299Z,2.90
2018-07-26T09:34:51.144Z,3.47
2018-07-26T09:37:19.541Z,3.00
2018-07-26T09:39:48.298Z,3.10
2018-07-26T09:42:16.688Z,2.70
2018-07-26T09:44:45.092Z,3.23
2018-07-26T09:47:13.442Z,2.93
2018-07-26T09:49:42.725Z,2.90
2018-07-26T09:52:11.560Z,3.43
2018-07-26T09:54:40.356Z,2.80
2018-07-26T09:57:08.710Z,2.60
2018-07-26T09:59:37.486Z,2.60
2018-07-26T10:02:06.320Z,2.40
2018-07-26T10:04:35.231Z,2.60
2018-07-26T10:07:03.754Z,2.83
2018-07-26T10:09:32.508Z,2.40
2018-07-26T10:12:01.318Z,2.10
2018-07-26T10:14:29.701Z,2.47
2018-07-26T10:16:58.094Z,2.53
2018-07-26T10:19:26.870Z,2.27
2018-07-26T10:21:55.284Z,1.93
2018-07-26T10:24:23.764Z,2.50
2018-07-26T10:26:52.136Z,3.00
2018-07-26T10:29:20.893Z,2.67
2018-07-26T10:31:49.320Z,2.50
2018-07-26T10:34:17.692Z,2.00
2018-07-26T10:36:46.514Z,2.67
2018-07-26T10:39:14.957Z,2.52
2018-07-26T10:41:43.310Z,2.35
2018-07-26T10:44:12.430Z,2.25
2018-07-26T10:46:40.783Z,3.00
2018-07-26T10:49:09.126Z,2.35
2018-07-26T10:51:37.488Z,2.75
2018-07-26T10:54:05.921Z,2.30
2018-07-26T10:56:34.679Z,2.45
2018-07-26T10:59:03.078Z,2.35
2018-07-26T11:01:31.505Z,2.45
2018-07-26T11:03:59.894Z,2.70
2018-07-26T11:06:28.662Z,2.52
2018-07-26T11:08:57.387Z,2.40
2018-07-26T11:11:26.170Z,2.40
2018-07-26T11:13:54.966Z,2.35
2018-07-26T11:16:23.405Z,2.65
2018-07-26T11:18:51.775Z,2.52
2018-07-26T11:21:20.566Z,2.40
2018-07-26T11:23:49.280Z,2.45
2018-07-26T11:26:18.100Z,2.20
2018-07-26T11:28:46.478Z,2.10
2018-07-26T11:31:15.235Z,2.45
2018-07-26T11:33:44.043Z,2.65
2018-07-26T11:36:12.829Z,2.30
2018-07-26T11:38:41.264Z,2.80
2018-07-26T11:41:10.095Z,2.22
2018-07-26T11:43:38.850Z,2.35
2018-07-26T11:46:07.275Z,3.12
2018-07-26T11:48:35.628Z,2.40
2018-07-26T11:51:04.044Z,2.30
2018-07-26T11:53:32.434Z,2.08
2018-07-26T11:56:00.822Z,2.50
2018-07-26T11:58:29.213Z,2.02
2018-07-26T12:00:58.015Z,2.40
2018-07-26T12:03:26.370Z,2.20
2018-07-26T12:05:54.777Z,2.67
2018-07-26T12:08:23.164Z,2.58
2018-07-26T12:10:51.911Z,2.55
2018-07-26T12:13:20.310Z,2.65
2018-07-26T12:15:48.679Z,2.42
2018-07-26T12:18:17.144Z,2.72
2018-07-26T12:20:45.941Z,2.47
2018-07-26T12:23:14.371Z,2.65
2018-07-26T12:25:43.258Z,2.45
2018-07-26T12:28:11.714Z,2.83
2018-07-26T12:30:40.090Z,2.50
2018-07-26T12:33:09.622Z,2.55
2018-07-26T12:35:39.457Z,2.40
2018-07-26T12:38:07.828Z,2.33
2018-07-26T12:40:36.224Z,2.27
2018-07-26T12:43:05.100Z,2.22
2018-07-26T12:45:33.972Z,2.35
2018-07-26T12:48:03.141Z,2.55
2018-07-26T12:50:31.561Z,2.42
2018-07-26T12:53:00.346Z,2.60
2018-07-26T12:55:29.588Z,2.33
2018-07-26T12:57:58.310Z,2.50
2018-07-26T13:00:26.670Z,2.55
2018-07-26T13:02:55.486Z,2.58
2018-07-26T13:05:24.284Z,2.50
2018-07-26T13:07:53.048Z,2.22
2018-07-26T13:10:21.776Z,2.27
2018-07-26T13:12:50.504Z,2.67
2018-07-26T13:15:19.282Z,2.70
2018-07-26T13:17:48.046Z,2.65
2018-07-26T13:20:16.868Z,2.55
2018-07-26T13:22:45.615Z,2.52
2018-07-26T13:25:13.991Z,2.35
2018-07-26T13:27:42.817Z,2.17
2018-07-26T13:30:11.575Z,2.50
2018-07-26T13:32:39.957Z,2.10
2018-07-26T13:35:08.727Z,2.42
2018-07-26T13:37:37.568Z,2.25
2018-07-26T13:40:06.057Z,2.50
2018-07-26T13:42:34.853Z,2.42
2018-07-26T13:45:03.620Z,2.45
2018-07-26T13:47:32.413Z,2.50
2018-07-26T13:50:01.155Z,2.25
2018-07-26T13:52:29.913Z,3.27
2018-07-26T13:54:58.363Z,2.42
2018-07-26T13:57:27.159Z,2.80
2018-07-26T13:59:55.895Z,2.40
2018-07-26T14:02:24.644Z,2.85
2018-07-26T14:04:53.469Z,2.58
2018-07-26T14:07:22.403Z,3.20
2018-07-26T14:09:51.294Z,2.90
2018-07-26T14:12:19.655Z,2.52
2018-07-26T14:14:48.384Z,2.60
2018-07-26T14:17:17.167Z,2.30
2018-07-26T14:19:45.984Z,2.50
2018-07-26T14:22:14.824Z,2.45
2018-07-26T14:24:43.626Z,2.65
2018-07-26T14:27:11.992Z,2.58
2018-07-26T14:29:40.750Z,2.27
2018-07-26T14:32:09.222Z,2.10
2018-07-26T14:34:37.555Z,2.12
2018-07-26T14:37:05.935Z,2.52
2018-07-26T14:39:34.726Z,2.37
2018-07-26T14:42:03.138Z,2.40
2018-07-26T14:44:31.525Z,2.70
2018-07-26T14:47:00.350Z,2.52
2018-07-26T14:49:29.126Z,2.60
2018-07-26T14:51:57.646Z,2.77
2018-07-26T14:54:26.410Z,2.60
2018-07-26T14:56:55.172Z,2.55
2018-07-26T14:59:23.960Z,2.52
2018-07-26T15:01:52.445Z,2.65
2018-07-26T15:04:21.270Z,2.50
2018-07-26T15:06:49.682Z,2.50
2018-07-26T15:09:18.414Z,2.70
2018-07-26T15:11:47.423Z,2.50
2018-07-26T15:14:16.382Z,2.70
2018-07-26T15:16:45.153Z,2.37
2018-07-26T15:19:13.917Z,2.47
2018-07-26T15:21:42.678Z,2.50
2018-07-26T15:24:11.453Z,2.10
2018-07-26T15:26:40.293Z,2.17
2018-07-26T15:29:09.075Z,2.35
2018-07-26T15:31:37.849Z,2.20
2018-07-26T15:34:06.609Z,2.27
2018-07-26T15:36:35.041Z,2.30
2018-07-26T15:39:04.777Z,2.47
2018-07-26T15:41:33.220Z,2.42
2018-07-26T15:44:02.003Z,2.10
2018-07-26T15:46:30.800Z,2.02
2018-07-26T15:48:59.254Z,2.20
2018-07-26T15:51:28.104Z,2.35
2018-07-26T15:53:56.843Z,2.02
2018-07-26T15:56:25.645Z,2.60
2018-07-26T15:58:54.041Z,2.30
2018-07-26T16:01:22.856Z,2.12
2018-07-26T16:03:51.952Z,2.12
2018-07-26T16:06:20.844Z,2.25
2018-07-26T16:08:50.382Z,2.55
2018-07-26T16:11:20.600Z,2.20
2018-07-26T16:13:49.014Z,2.20
2018-07-26T16:16:18.191Z,1.90
2018-07-26T16:18:46.998Z,2.08
2018-07-26T16:21:15.913Z,2.47
2018-07-26T16:23:44.393Z,2.15
2018-07-26T16:26:13.298Z,2.22
2018-07-26T16:28:42.109Z,2.30
2018-07-26T16:31:10.967Z,1.98
2018-07-26T16:33:39.354Z,2.02
2018-07-26T16:36:07.781Z,2.20
2018-07-26T16:38:36.170Z,2.30
2018-07-26T16:41:04.946Z,2.02
2018-07-26T16:43:33.724Z,1.92
2018-07-26T16:46:02.507Z,2.20
2018-07-26T16:48:30.870Z,2.17
2018-07-26T16:50:59.686Z,2.27
2018-07-26T16:53:28.475Z,2.10
2018-07-26T16:55:56.912Z,2.20
2018-07-26T16:58:25.855Z,2.17
2018-07-26T17:00:54.519Z,1.90
2018-07-26T17:03:23.285Z,2.05
2018-07-26T17:05:51.681Z,2.58
2018-07-26T17:08:20.111Z,2.50
2018-07-26T17:10:48.588Z,2.40
2018-07-26T17:13:17.427Z,2.02
2018-07-26T17:15:45.830Z,1.80
2018-07-26T17:18:14.656Z,2.70
2018-07-26T17:20:43.085Z,2.77
2018-07-26T17:23:11.505Z,2.30
2018-07-26T17:25:39.889Z,2.50
2018-07-26T17:30:36.243Z,2.10
2018-07-26T17:33:05.016Z,2.10
2018-07-26T17:35:33.846Z,2.37
2018-07-26T17:38:02.694Z,1.98
2018-07-26T17:40:31.499Z,1.67
2018-07-26T17:43:00.753Z,2.40
2018-07-26T17:45:29.568Z,2.08
2018-07-26T17:47:58.335Z,2.12
2018-07-26T17:50:27.128Z,2.27
2018-07-26T17:52:55.506Z,1.90
2018-07-26T17:55:24.355Z,2.30
2018-07-26T17:57:53.092Z,2.22
2018-07-26T18:00:21.874Z,2.12
2018-07-26T18:02:50.670Z,2.08
2018-07-26T18:05:19.490Z,2.35
2018-07-26T18:07:47.866Z,2.45
2018-07-26T18:10:16.300Z,2.37
2018-07-26T18:12:45.132Z,2.50
2018-07-26T18:15:13.902Z,2.80
2018-07-26T18:17:42.236Z,2.70
2018-07-26T18:20:11.032Z,2.80
2018-07-26T18:22:39.794Z,3.00
2018-07-26T18:25:08.604Z,3.42
2018-07-26T18:27:37.368Z,2.90
2018-07-26T18:30:07.204Z,2.67
2018-07-26T18:32:36.006Z,2.75
2018-07-26T18:35:04.974Z,2.58
2018-07-26T18:37:33.481Z,2.92
2018-07-26T18:40:02.262Z,3.10
2018-07-26T18:42:31.027Z,3.20
2018-07-26T18:44:59.856Z,2.98
2018-07-26T18:47:28.681Z,2.90
2018-07-26T18:49:57.060Z,2.70
2018-07-26T18:52:26.390Z,2.90
2018-07-26T18:54:55.185Z,2.80
2018-07-26T18:57:24.689Z,3.00
2018-07-26T18:59:53.794Z,2.73
2018-07-26T19:02:23.921Z,2.60
2018-07-26T19:04:56.549Z,2.57
2018-07-26T19:07:32.758Z,2.77
2018-07-26T19:10:08.882Z,2.70
2018-07-26T19:12:41.766Z,2.80
2018-07-26T19:15:15.454Z,2.47
2018-07-26T19:17:43.937Z,3.10
2018-07-26T19:20:13.179Z,3.00
2018-07-26T19:22:43.238Z,2.67
2018-07-26T19:25:14.261Z,2.80
2018-07-26T19:27:42.677Z,2.73
2018-07-26T19:30:12.796Z,2.70
2018-07-26T19:32:41.355Z,3.17
2018-07-26T19:35:10.347Z,3.03
2018-07-26T19:37:38.814Z,2.80
2018-07-26T19:40:09.353Z,2.80
2018-07-26T19:42:38.202Z,2.77
2018-07-26T19:45:07.774Z,2.57
2018-07-26T19:47:36.240Z,2.83
2018-07-26T19:50:05.372Z,2.93
2018-07-26T19:52:34.234Z,2.60
2018-07-26T19:55:03.135Z,2.97
2018-07-26T19:57:31.914Z,2.70
2018-07-26T20:00:00.730Z,2.50
2018-07-26T20:02:29.101Z,3.00
2018-07-26T20:04:57.885Z,2.50
2018-07-26T20:07:27.167Z,2.77
2018-07-26T20:09:56.167Z,3.10
2018-07-26T20:14:52.545Z,3.60
2018-07-26T20:19:48.472Z,3.00
2018-07-26T20:24:45.202Z,2.70
2018-07-26T20:37:05.843Z,3.20
2018-07-26T22:48:04.969Z,3.60
